createdAt,value
2017-12-17T00:00:35.805Z,5.03
2017-12-17T00:03:03.325Z,4.57
2017-12-17T00:05:30.972Z,4.68
2017-12-17T00:07:59.100Z,5.45
2017-12-17T00:10:28.653Z,4.80
2017-12-17T00:12:56.569Z,4.95
2017-12-17T00:15:24.793Z,4.90
2017-12-17T00:17:52.311Z,4.65
2017-12-17T00:20:21.026Z,5.40
2017-12-17T00:22:51.462Z,5.45
2017-12-17T00:25:19.534Z,4.45
2017-12-17T00:27:47.845Z,4.85
2017-12-17T00:30:15.405Z,4.72
2017-12-17T00:32:42.925Z,4.70
2017-12-17T00:35:10.954Z,5.05
2017-12-17T00:37:39.450Z,5.85
2017-12-17T00:40:06.969Z,5.18
2017-12-17T00:42:34.502Z,3.78
2017-12-17T00:45:02.813Z,5.00
2017-12-17T00:47:30.988Z,5.30
2017-12-17T00:50:00.197Z,5.60
2017-12-17T00:52:27.989Z,6.55
2017-12-17T00:54:55.498Z,5.60
2017-12-17T00:57:23.024Z,5.03
2017-12-17T00:59:51.144Z,5.78
2017-12-17T01:02:21.034Z,5.40
2017-12-17T01:04:49.405Z,5.80
2017-12-17T01:07:17.161Z,5.80
2017-12-17T01:09:45.497Z,5.93
2017-12-17T01:12:15.258Z,5.43
2017-12-17T01:14:43.003Z,5.68
2017-12-17T01:17:10.636Z,5.00
2017-12-17T01:19:38.246Z,4.80
2017-12-17T01:22:05.890Z,4.30
2017-12-17T01:24:34.277Z,5.37
2017-12-17T01:27:02.499Z,5.57
2017-12-17T01:29:30.409Z,5.20
2017-12-17T01:31:58.020Z,4.43
2017-12-17T01:34:25.539Z,5.05
2017-12-17T01:36:53.288Z,4.80
2017-12-17T01:39:20.852Z,5.35
2017-12-17T01:41:49.225Z,4.35
2017-12-17T01:44:17.605Z,5.60
2017-12-17T01:46:45.247Z,5.60
2017-12-17T01:49:12.825Z,5.75
2017-12-17T01:51:41.254Z,4.18
2017-12-17T01:54:08.766Z,4.80
2017-12-17T01:56:36.525Z,4.65
2017-12-17T01:59:05.530Z,5.12
2017-12-17T02:01:33.138Z,4.68
2017-12-17T02:04:02.594Z,4.90
2017-12-17T02:06:32.906Z,5.28
2017-12-17T02:09:00.468Z,5.05
2017-12-17T02:11:28.022Z,5.05
2017-12-17T02:13:55.788Z,4.55
2017-12-17T02:16:23.351Z,5.25
2017-12-17T02:18:51.008Z,5.60
2017-12-17T02:21:18.774Z,5.62
2017-12-17T02:23:46.333Z,5.15
2017-12-17T02:26:13.997Z,4.87
2017-12-17T02:28:41.758Z,5.25
2017-12-17T02:31:09.316Z,4.85
2017-12-17T02:33:36.928Z,4.97
2017-12-17T02:36:04.842Z,5.75
2017-12-17T02:38:32.395Z,4.65
2017-12-17T02:40:59.976Z,4.80
2017-12-17T02:43:27.583Z,5.72
2017-12-17T02:45:55.491Z,5.30
2017-12-17T02:48:23.059Z,4.62
2017-12-17T02:50:50.767Z,5.35
2017-12-17T02:53:18.277Z,5.60
2017-12-17T02:55:45.930Z,4.70
2017-12-17T02:58:14.124Z,4.95
2017-12-17T03:00:41.842Z,5.45
2017-12-17T03:03:09.462Z,5.87
2017-12-17T03:05:37.528Z,6.03
2017-12-17T03:08:05.143Z,5.30
2017-12-17T03:10:32.838Z,6.22
2017-12-17T03:13:02.901Z,5.78
2017-12-17T03:15:30.414Z,5.60
2017-12-17T03:17:57.956Z,5.75
2017-12-17T03:20:25.704Z,5.47
2017-12-17T03:22:53.209Z,5.28
2017-12-17T03:25:21.795Z,6.00
2017-12-17T03:27:49.362Z,6.03
2017-12-17T03:30:16.886Z,5.85
2017-12-17T03:32:44.444Z,6.10
2017-12-17T03:35:11.997Z,6.15
2017-12-17T03:37:39.503Z,5.50
2017-12-17T03:40:07.010Z,5.20
2017-12-17T03:42:34.878Z,5.75
2017-12-17T03:45:02.377Z,5.85
2017-12-17T03:47:29.949Z,5.25
2017-12-17T03:49:57.717Z,5.90
2017-12-17T03:52:25.268Z,6.32
2017-12-17T03:54:52.780Z,4.90
2017-12-17T03:57:20.458Z,5.45
2017-12-17T03:59:47.998Z,6.60
2017-12-17T04:02:15.505Z,5.78
2017-12-17T04:04:43.320Z,7.05
2017-12-17T04:07:10.826Z,5.97
2017-12-17T04:09:38.341Z,5.65
2017-12-17T04:12:06.202Z,6.10
2017-12-17T04:14:33.710Z,7.32
2017-12-17T04:17:01.218Z,7.10
2017-12-17T04:19:28.981Z,6.35
2017-12-17T04:21:56.485Z,7.80
2017-12-17T04:24:23.997Z,7.28
2017-12-17T04:26:51.541Z,8.23
2017-12-17T04:29:19.046Z,8.32
2017-12-17T04:31:46.558Z,7.68
2017-12-17T04:34:14.337Z,7.82
2017-12-17T04:36:41.846Z,8.32
2017-12-17T04:39:09.498Z,8.25
2017-12-17T04:41:37.422Z,7.10
2017-12-17T04:44:04.926Z,7.72
2017-12-17T04:46:32.435Z,6.87
2017-12-17T04:49:00.177Z,7.03
2017-12-17T04:51:27.698Z,8.70
2017-12-17T04:53:55.204Z,7.12
2017-12-17T04:56:22.926Z,9.73
2017-12-17T04:58:50.585Z,8.38
2017-12-17T05:01:18.095Z,7.35
2017-12-17T05:03:45.783Z,7.35
2017-12-17T05:06:13.321Z,7.78
2017-12-17T05:08:40.828Z,6.80
2017-12-17T05:11:08.624Z,6.35
2017-12-17T05:13:36.138Z,7.47
2017-12-17T05:16:03.642Z,7.25
2017-12-17T05:18:31.645Z,7.78
2017-12-17T05:20:59.150Z,7.87
2017-12-17T05:23:26.661Z,8.20
2017-12-17T05:25:54.219Z,8.07
2017-12-17T05:28:21.798Z,7.18
2017-12-17T05:30:49.320Z,6.87
2017-12-17T05:33:17.151Z,6.62
2017-12-17T05:35:44.662Z,7.57
2017-12-17T05:38:12.165Z,7.78
2017-12-17T05:40:39.985Z,7.30
2017-12-17T05:43:07.525Z,6.68
2017-12-17T05:45:35.086Z,7.25
2017-12-17T05:48:02.857Z,6.20
2017-12-17T05:50:30.614Z,6.72
2017-12-17T05:52:58.143Z,7.53
2017-12-17T05:55:25.674Z,7.43
2017-12-17T05:57:53.182Z,7.65
2017-12-17T06:00:20.685Z,8.07
2017-12-17T06:02:48.510Z,8.00
2017-12-17T06:05:16.018Z,6.72
2017-12-17T06:07:43.539Z,6.75
2017-12-17T06:10:11.085Z,6.30
2017-12-17T06:12:38.647Z,7.30
2017-12-17T06:15:06.154Z,6.07
2017-12-17T06:17:33.686Z,6.68
2017-12-17T06:20:01.194Z,7.80
2017-12-17T06:22:28.705Z,8.23
2017-12-17T06:24:56.323Z,6.40
2017-12-17T06:27:23.849Z,6.95
2017-12-17T06:29:51.359Z,8.68
2017-12-17T06:32:19.305Z,7.20
2017-12-17T06:34:46.805Z,5.87
2017-12-17T06:37:14.337Z,7.25
2017-12-17T06:39:41.896Z,5.80
2017-12-17T06:42:09.410Z,6.80
2017-12-17T06:44:36.914Z,6.40
2017-12-17T06:47:04.678Z,6.70
2017-12-17T06:49:32.254Z,6.10
2017-12-17T06:51:59.757Z,5.87
2017-12-17T06:54:27.726Z,6.35
2017-12-17T06:56:55.230Z,4.95
2017-12-17T06:59:22.738Z,5.90
2017-12-17T07:01:50.279Z,5.57
2017-12-17T07:04:17.782Z,5.15
2017-12-17T07:06:45.286Z,6.68
2017-12-17T07:09:12.838Z,5.65
2017-12-17T07:11:40.346Z,6.15
2017-12-17T07:14:07.849Z,4.30
2017-12-17T07:16:35.566Z,4.30
2017-12-17T07:19:03.070Z,5.00
2017-12-17T07:21:30.607Z,5.40
2017-12-17T07:23:58.303Z,5.65
2017-12-17T07:26:25.815Z,4.53
2017-12-17T07:28:53.330Z,4.10
2017-12-17T07:31:20.945Z,4.22
2017-12-17T07:33:48.450Z,4.72
2017-12-17T07:36:15.954Z,4.47
2017-12-17T07:38:43.518Z,6.05
2017-12-17T07:41:11.017Z,5.25
2017-12-17T07:43:38.547Z,4.75
2017-12-17T07:46:06.250Z,3.75
2017-12-17T07:48:33.753Z,4.68
2017-12-17T07:51:01.253Z,5.35
2017-12-17T07:53:28.975Z,4.65
2017-12-17T07:55:56.535Z,4.70
2017-12-17T07:58:24.039Z,5.75
2017-12-17T08:00:52.063Z,5.18
2017-12-17T08:03:19.566Z,5.05
2017-12-17T08:05:47.071Z,4.40
2017-12-17T08:08:14.636Z,5.22
2017-12-17T08:10:42.226Z,4.90
2017-12-17T08:13:09.759Z,4.87
2017-12-17T08:15:37.314Z,5.85
2017-12-17T08:18:04.827Z,5.53
2017-12-17T08:20:32.378Z,5.28
2017-12-17T08:23:00.095Z,5.10
2017-12-17T08:25:27.663Z,4.45
2017-12-17T08:27:55.170Z,5.62
2017-12-17T08:30:22.772Z,4.40
2017-12-17T08:32:50.340Z,3.40
2017-12-17T08:35:19.656Z,3.80
2017-12-17T08:37:51.822Z,4.40
2017-12-17T08:40:19.678Z,4.35
2017-12-17T08:42:47.222Z,3.10
2017-12-17T08:45:15.022Z,3.28
2017-12-17T08:47:43.298Z,3.50
2017-12-17T08:50:11.128Z,3.78
2017-12-17T08:52:38.686Z,4.65
2017-12-17T08:55:08.128Z,3.97
2017-12-17T08:57:35.650Z,3.92
2017-12-17T09:00:03.227Z,4.40
2017-12-17T09:02:30.767Z,3.28
2017-12-17T09:04:58.266Z,2.55
2017-12-17T09:07:26.192Z,2.53
2017-12-17T09:09:53.701Z,2.60
2017-12-17T09:12:21.215Z,2.65
2017-12-17T09:14:49.177Z,3.37
2017-12-17T09:17:20.422Z,2.42
2017-12-17T09:19:49.109Z,2.33
2017-12-17T09:22:17.343Z,2.50
2017-12-17T09:24:45.116Z,2.85
2017-12-17T09:27:13.324Z,3.00
2017-12-17T09:29:40.984Z,3.15
2017-12-17T09:32:09.042Z,1.80
2017-12-17T09:34:36.718Z,2.97
2017-12-17T09:37:05.198Z,3.85
2017-12-17T09:39:34.087Z,2.75
2017-12-17T09:42:03.808Z,2.58
2017-12-17T09:44:31.972Z,2.60
2017-12-17T09:46:59.937Z,2.50
2017-12-17T09:49:29.302Z,1.90
2017-12-17T09:51:57.591Z,2.50
2017-12-17T09:54:26.010Z,2.65
2017-12-17T09:56:54.168Z,2.53
2017-12-17T09:59:21.855Z,2.00
2017-12-17T10:01:49.709Z,2.03
2017-12-17T10:04:18.510Z,2.45
2017-12-17T10:06:47.272Z,2.40
2017-12-17T10:09:15.343Z,1.80
2017-12-17T10:11:43.723Z,2.78
2017-12-17T10:14:11.855Z,2.00
2017-12-17T10:16:39.659Z,3.40
2017-12-17T10:19:07.729Z,2.65
2017-12-17T10:21:35.294Z,2.72
2017-12-17T10:24:03.114Z,2.05
2017-12-17T10:26:30.919Z,2.08
2017-12-17T10:28:59.094Z,2.78
2017-12-17T10:31:26.661Z,2.70
2017-12-17T10:33:54.330Z,1.70
2017-12-17T10:36:23.891Z,3.75
2017-12-17T10:38:51.685Z,1.70
2017-12-17T10:41:19.541Z,2.10
2017-12-17T10:43:47.162Z,1.90
2017-12-17T10:46:14.826Z,2.35
2017-12-17T10:48:42.841Z,2.35
2017-12-17T10:51:10.721Z,2.45
2017-12-17T10:53:38.456Z,2.30
2017-12-17T10:56:06.283Z,1.95
2017-12-17T10:58:33.866Z,2.47
2017-12-17T11:01:01.971Z,2.25
2017-12-17T11:03:29.733Z,2.12
2017-12-17T11:05:57.599Z,1.77
2017-12-17T11:08:25.362Z,1.92
2017-12-17T11:10:53.251Z,1.98
2017-12-17T11:13:20.963Z,2.15
2017-12-17T11:15:48.566Z,3.20
2017-12-17T11:18:16.622Z,2.83
2017-12-17T11:20:44.286Z,2.42
2017-12-17T11:23:11.843Z,2.65
2017-12-17T11:25:39.557Z,3.10
2017-12-17T11:28:07.272Z,2.53
2017-12-17T11:30:34.871Z,2.10
2017-12-17T11:33:03.178Z,2.30
2017-12-17T11:35:30.962Z,2.50
2017-12-17T11:37:58.632Z,2.40
2017-12-17T11:40:26.395Z,2.62
2017-12-17T11:42:53.954Z,2.40
2017-12-17T11:45:21.543Z,2.12
2017-12-17T11:47:49.155Z,1.75
2017-12-17T11:50:16.669Z,2.15
2017-12-17T11:52:44.398Z,1.90
2017-12-17T11:55:12.125Z,3.15
2017-12-17T11:57:39.719Z,2.80
2017-12-17T12:00:07.471Z,2.97
2017-12-17T12:02:35.348Z,3.40
2017-12-17T12:05:02.854Z,2.40
2017-12-17T12:07:30.391Z,2.30
2017-12-17T12:09:58.115Z,3.40
2017-12-17T12:12:25.624Z,2.20
2017-12-17T12:14:53.143Z,2.08
2017-12-17T12:17:21.535Z,3.12
2017-12-17T12:19:49.042Z,3.55
2017-12-17T12:22:16.743Z,2.97
2017-12-17T12:24:44.546Z,3.10
2017-12-17T12:27:12.069Z,2.87
2017-12-17T12:29:39.625Z,2.85
2017-12-17T12:32:07.287Z,2.58
2017-12-17T12:34:34.853Z,2.53
2017-12-17T12:37:02.446Z,2.42
2017-12-17T12:39:30.581Z,2.78
2017-12-17T12:41:58.221Z,2.05
2017-12-17T12:44:25.745Z,1.90
2017-12-17T12:46:53.769Z,2.40
2017-12-17T12:49:21.273Z,3.35
2017-12-17T12:51:48.813Z,2.70
2017-12-17T12:54:16.437Z,2.70
2017-12-17T12:56:44.004Z,2.80
2017-12-17T12:59:11.516Z,2.95
2017-12-17T13:01:39.326Z,2.53
2017-12-17T13:04:06.993Z,4.15
2017-12-17T13:06:34.547Z,3.40
2017-12-17T13:09:02.111Z,3.10
2017-12-17T13:11:29.782Z,3.00
2017-12-17T13:13:57.330Z,3.60
2017-12-17T13:16:25.091Z,3.37
2017-12-17T13:18:52.651Z,3.20
2017-12-17T13:21:20.209Z,3.28
2017-12-17T13:23:47.836Z,3.35
2017-12-17T13:26:15.350Z,4.70
2017-12-17T13:28:42.886Z,4.47
2017-12-17T13:31:10.711Z,3.62
2017-12-17T13:33:38.222Z,4.40
2017-12-17T13:36:05.769Z,4.12
2017-12-17T13:38:33.301Z,3.87
2017-12-17T13:41:00.810Z,3.53
2017-12-17T13:43:28.314Z,4.20
2017-12-17T13:45:56.108Z,4.00
2017-12-17T13:48:23.617Z,4.25
2017-12-17T13:50:51.876Z,4.20
2017-12-17T13:53:19.425Z,4.15
2017-12-17T13:55:46.985Z,4.25
2017-12-17T13:58:14.514Z,4.03
2017-12-17T14:00:42.054Z,4.35
2017-12-17T14:03:09.680Z,4.30
2017-12-17T14:05:37.192Z,4.28
2017-12-17T14:08:05.163Z,4.53
2017-12-17T14:10:32.766Z,4.40
2017-12-17T14:13:00.310Z,6.10
2017-12-17T14:15:28.131Z,3.70
2017-12-17T14:17:55.658Z,3.30
2017-12-17T14:20:23.166Z,4.32
2017-12-17T14:22:50.826Z,3.65
2017-12-17T14:25:18.386Z,4.18
2017-12-17T14:27:45.903Z,4.15
2017-12-17T14:30:13.678Z,4.45
2017-12-17T14:32:41.230Z,5.32
2017-12-17T14:35:08.747Z,4.22
2017-12-17T14:37:36.383Z,3.67
2017-12-17T14:40:03.891Z,4.95
2017-12-17T14:42:31.394Z,4.78
2017-12-17T14:44:59.489Z,3.17
2017-12-17T14:47:27.030Z,3.35
2017-12-17T14:49:54.551Z,2.80
2017-12-17T14:52:22.353Z,3.42
2017-12-17T14:54:50.776Z,3.80
2017-12-17T14:57:18.338Z,2.95
2017-12-17T14:59:45.954Z,3.67
2017-12-17T15:02:14.329Z,3.30
2017-12-17T15:04:42.409Z,2.75
2017-12-17T15:07:10.368Z,2.80
2017-12-17T15:09:38.038Z,2.92
2017-12-17T15:12:05.796Z,3.25
2017-12-17T15:14:33.967Z,3.47
2017-12-17T15:17:01.787Z,2.97
2017-12-17T15:19:29.511Z,3.70
2017-12-17T15:21:57.281Z,3.33
2017-12-17T15:24:24.924Z,3.95
2017-12-17T15:26:52.583Z,4.10
2017-12-17T15:29:20.174Z,2.75
2017-12-17T15:31:47.906Z,3.08
2017-12-17T15:34:16.592Z,3.25
2017-12-17T15:36:44.458Z,3.65
2017-12-17T15:39:12.119Z,3.62
2017-12-17T15:41:39.649Z,3.35
2017-12-17T15:44:07.373Z,3.50
2017-12-17T15:46:35.105Z,3.35
2017-12-17T15:49:02.779Z,3.15
2017-12-17T15:51:31.046Z,3.37
2017-12-17T15:53:58.707Z,3.08
2017-12-17T15:56:26.468Z,4.05
2017-12-17T15:58:54.435Z,5.37
2017-12-17T16:01:22.324Z,5.28
2017-12-17T16:03:50.269Z,4.53
2017-12-17T16:06:18.900Z,7.00
2017-12-17T16:08:47.553Z,4.90
2017-12-17T16:11:16.573Z,4.25
2017-12-17T16:13:44.682Z,4.82
2017-12-17T16:16:12.490Z,4.53
2017-12-17T16:18:40.553Z,5.95
2017-12-17T16:21:08.597Z,5.32
2017-12-17T16:23:36.375Z,6.37
2017-12-17T16:26:04.344Z,4.82
2017-12-17T16:28:32.330Z,5.45
2017-12-17T16:31:00.233Z,6.43
2017-12-17T16:33:28.441Z,5.50
2017-12-17T16:35:56.672Z,5.80
2017-12-17T16:38:24.491Z,6.05
2017-12-17T16:40:52.105Z,6.12
2017-12-17T16:43:20.241Z,5.85
2017-12-17T16:45:47.890Z,5.00
2017-12-17T16:48:15.473Z,6.35
2017-12-17T16:50:43.212Z,6.35
2017-12-17T16:53:11.079Z,6.28
2017-12-17T16:55:38.842Z,5.95
2017-12-17T16:58:06.462Z,5.53
2017-12-17T17:00:34.269Z,5.82
2017-12-17T17:03:02.005Z,5.80
2017-12-17T17:05:29.898Z,7.07
2017-12-17T17:07:57.561Z,6.82
2017-12-17T17:10:25.341Z,7.10
2017-12-17T17:12:53.394Z,7.47
2017-12-17T17:15:22.058Z,6.70
2017-12-17T17:17:49.759Z,8.27
2017-12-17T17:20:17.710Z,7.05
2017-12-17T17:22:45.454Z,7.85
2017-12-17T17:25:13.351Z,8.07
2017-12-17T17:27:41.563Z,9.70
2017-12-17T17:30:09.392Z,7.47
2017-12-17T17:32:37.154Z,8.57
2017-12-17T17:35:05.390Z,7.40
2017-12-17T17:37:33.193Z,9.73
2017-12-17T17:40:01.248Z,8.82
2017-12-17T17:42:29.028Z,8.23
2017-12-17T17:44:56.988Z,8.27
2017-12-17T17:47:24.735Z,7.40
2017-12-17T17:49:53.913Z,8.35
2017-12-17T17:52:21.714Z,7.43
2017-12-17T17:54:49.972Z,7.15
2017-12-17T17:57:17.959Z,9.10
2017-12-17T17:59:45.722Z,5.82
2017-12-17T18:02:13.371Z,5.60
2017-12-17T18:04:41.458Z,6.85
2017-12-17T18:07:09.329Z,5.50
2017-12-17T18:09:37.186Z,8.20
2017-12-17T18:12:05.166Z,6.57
2017-12-17T18:14:33.433Z,6.50
2017-12-17T18:17:01.367Z,6.28
2017-12-17T18:19:30.083Z,6.68
2017-12-17T18:21:57.955Z,7.40
2017-12-17T18:24:25.720Z,6.95
2017-12-17T18:26:53.481Z,6.78
2017-12-17T18:29:21.142Z,7.03
2017-12-17T18:31:48.806Z,6.97
2017-12-17T18:34:16.880Z,5.65
2017-12-17T18:36:44.803Z,6.00
2017-12-17T18:39:13.238Z,4.90
2017-12-17T18:41:41.040Z,6.68
2017-12-17T18:44:08.762Z,5.05
2017-12-17T18:46:36.514Z,6.00
2017-12-17T18:49:05.199Z,6.53
2017-12-17T18:51:32.982Z,5.82
2017-12-17T18:54:00.829Z,5.50
2017-12-17T18:56:29.002Z,5.40
2017-12-17T18:58:56.675Z,4.57
2017-12-17T19:01:24.386Z,5.25
2017-12-17T19:03:52.294Z,5.22
2017-12-17T19:06:20.525Z,4.93
2017-12-17T19:08:48.233Z,5.57
2017-12-17T19:11:16.097Z,6.35
2017-12-17T19:13:43.873Z,5.78
2017-12-17T19:16:11.692Z,5.75
2017-12-17T19:18:39.497Z,5.03
2017-12-17T19:21:07.360Z,5.03
2017-12-17T19:23:35.131Z,4.45
2017-12-17T19:26:03.296Z,4.78
2017-12-17T19:28:31.073Z,4.57
2017-12-17T19:30:59.030Z,4.95
2017-12-17T19:33:26.998Z,4.82
2017-12-17T19:35:54.864Z,5.65
2017-12-17T19:38:22.628Z,5.80
2017-12-17T19:40:50.713Z,4.37
2017-12-17T19:43:18.480Z,5.55
2017-12-17T19:45:48.107Z,6.47
2017-12-17T19:48:17.268Z,5.15
2017-12-17T19:50:45.052Z,5.82
2017-12-17T19:53:12.910Z,6.12
2017-12-17T19:55:40.877Z,5.75
2017-12-17T19:58:08.632Z,3.87
2017-12-17T20:00:36.395Z,3.90
2017-12-17T20:03:04.262Z,4.30
2017-12-17T20:05:32.025Z,5.53
2017-12-17T20:07:59.791Z,5.30
2017-12-17T20:10:28.431Z,4.43
2017-12-17T20:12:56.379Z,4.53
2017-12-17T20:15:24.106Z,3.42
2017-12-17T20:17:53.091Z,4.90
2017-12-17T20:20:21.520Z,4.05
2017-12-17T20:22:49.856Z,3.92
2017-12-17T20:25:17.727Z,3.95
2017-12-17T20:27:45.484Z,4.28
2017-12-17T20:30:13.198Z,4.05
2017-12-17T20:32:41.116Z,3.90
2017-12-17T20:35:08.830Z,3.45
2017-12-17T20:37:36.746Z,5.10
2017-12-17T20:40:05.960Z,4.68
2017-12-17T20:42:33.972Z,3.95
2017-12-17T20:45:01.675Z,3.53
2017-12-17T20:47:29.757Z,4.03
2017-12-17T20:49:57.615Z,4.62
2017-12-17T20:52:26.460Z,4.10
2017-12-17T20:54:54.412Z,5.35
2017-12-17T20:57:22.620Z,4.85
2017-12-17T20:59:50.711Z,4.78
2017-12-17T21:02:18.698Z,5.75
2017-12-17T21:04:46.819Z,5.93
2017-12-17T21:07:14.730Z,4.55
2017-12-17T21:09:43.122Z,4.25
2017-12-17T21:12:11.019Z,4.03
2017-12-17T21:14:38.851Z,4.60
2017-12-17T21:17:06.724Z,4.90
2017-12-17T21:19:34.570Z,4.75
2017-12-17T21:22:02.345Z,4.55
2017-12-17T21:24:30.301Z,4.50
2017-12-17T21:26:58.590Z,4.40
2017-12-17T21:29:26.584Z,5.15
2017-12-17T21:31:54.521Z,4.90
2017-12-17T21:34:22.288Z,4.47
2017-12-17T21:36:49.981Z,4.50
2017-12-17T21:39:18.113Z,5.55
2017-12-17T21:41:45.980Z,4.62
2017-12-17T21:44:13.862Z,5.85
2017-12-17T21:46:42.125Z,6.85
2017-12-17T21:49:09.885Z,4.15
2017-12-17T21:51:37.651Z,5.07
2017-12-17T21:54:05.282Z,5.18
2017-12-17T21:56:32.871Z,4.28
2017-12-17T21:59:00.431Z,5.22
2017-12-17T22:01:28.525Z,4.60
2017-12-17T22:03:56.169Z,4.93
2017-12-17T22:06:23.749Z,3.78
2017-12-17T22:08:51.350Z,4.35
2017-12-17T22:11:19.048Z,4.32
2017-12-17T22:13:47.628Z,4.28
2017-12-17T22:16:15.497Z,5.25
2017-12-17T22:18:43.014Z,5.40
2017-12-17T22:21:10.543Z,3.72
2017-12-17T22:23:38.480Z,5.65
2017-12-17T22:26:06.038Z,5.57
2017-12-17T22:28:33.665Z,6.55
2017-12-17T22:31:01.463Z,5.03
2017-12-17T22:33:28.966Z,5.87
2017-12-17T22:35:56.478Z,6.00
2017-12-17T22:38:24.447Z,5.35
2017-12-17T22:40:51.959Z,6.30
2017-12-17T22:43:19.473Z,6.30
2017-12-17T22:45:47.332Z,4.75
2017-12-17T22:48:14.905Z,5.57
2017-12-17T22:50:42.449Z,5.55
2017-12-17T22:53:10.189Z,5.45
2017-12-17T22:55:37.706Z,6.20
2017-12-17T22:58:05.234Z,5.47
2017-12-17T23:00:33.174Z,6.60
2017-12-17T23:03:00.693Z,7.47
2017-12-17T23:05:28.213Z,5.87
2017-12-17T23:07:57.348Z,5.55
2017-12-17T23:10:24.866Z,6.78
2017-12-17T23:12:53.349Z,6.35
2017-12-17T23:15:21.112Z,5.05
2017-12-17T23:17:48.672Z,6.43
2017-12-17T23:20:16.273Z,5.47
2017-12-17T23:22:44.114Z,5.03
2017-12-17T23:25:11.657Z,4.55
2017-12-17T23:27:39.217Z,5.53
2017-12-17T23:30:07.081Z,6.07
2017-12-17T23:32:34.641Z,5.35
2017-12-17T23:35:03.123Z,5.35
2017-12-17T23:37:30.704Z,4.78
2017-12-17T23:39:58.224Z,5.65
2017-12-17T23:42:25.739Z,6.05
2017-12-17T23:44:53.459Z,4.93
2017-12-17T23:47:20.966Z,4.85
2017-12-17T23:49:48.481Z,5.45
2017-12-17T23:52:16.047Z,5.78
2017-12-17T23:54:43.595Z,5.20
2017-12-17T23:57:11.098Z,4.60
2017-12-17T23:59:41.375Z,4.70
